Time;durP1;ratioP1;P1;durP2;ratioP2;P2;SDS_P1;SDS_P2;PMS_P1;PMS_P2;Temp;Humidity;BMP_temperature;BMP_pressure;BME280_temperature;BME280_humidity;BME280_pressure;Samples;Min_cycle;Max_cycle;Signal;HPM_P1;HPM_P2
2022/06/12 00:00:51;;;;;;;11.98;4.20;;;14.90;99.90;;;;;;5103704;28;20036;-75
2022/06/12 00:03:19;;;;;;;11.48;4.65;;;14.80;99.90;;;;;;5108148;28;20039;-75
2022/06/12 00:05:52;;;;;;;14.98;4.50;;;14.80;99.90;;;;;;5108174;28;20046;-75
2022/06/12 00:08:18;;;;;;;13.05;4.80;;;14.70;99.90;;;;;;5088562;28;20123;-75
2022/06/12 00:10:46;;;;;;;12.30;4.95;;;14.70;99.90;;;;;;5108713;28;20047;-76
2022/06/12 00:13:14;;;;;;;14.07;5.25;;;14.60;99.90;;;;;;5087285;28;20123;-76
2022/06/12 00:15:41;;;;;;;12.55;4.45;;;14.60;99.90;;;;;;5087675;28;20056;-75
2022/06/12 00:18:06;;;;;;;16.67;4.68;;;14.60;99.90;;;;;;5096922;28;20074;-74
2022/06/12 00:20:32;;;;;;;11.30;5.00;;;14.60;99.90;;;;;;5089560;28;20078;-75
2022/06/12 00:22:59;;;;;;;15.63;6.13;;;14.60;99.90;;;;;;5106444;28;20052;-75
2022/06/12 00:25:28;;;;;;;13.38;5.18;;;14.60;99.90;;;;;;5099004;28;20031;-75
2022/06/12 00:27:54;;;;;;;13.38;5.30;;;14.60;99.90;;;;;;5108619;28;20059;-75
2022/06/12 00:30:22;;;;;;;16.27;5.75;;;14.70;99.90;;;;;;5088474;28;20051;-75
2022/06/12 00:32:52;;;;;;;18.33;5.90;;;14.80;99.90;;;;;;5107193;28;20122;-75
2022/06/12 00:35:24;;;;;;;16.05;5.55;;;14.80;99.90;;;;;;5073535;28;20048;-75
2022/06/12 00:37:50;;;;;;;14.18;5.80;;;14.70;99.90;;;;;;5104118;28;20047;-75
2022/06/12 00:40:15;;;;;;;14.48;4.95;;;14.80;99.90;;;;;;5092215;28;20126;-75
2022/06/12 00:42:47;;;;;;;13.88;5.80;;;14.80;99.90;;;;;;5088611;28;20604;-75
2022/06/12 00:45:32;;;;;;;15.85;5.60;;;14.80;99.90;;;;;;5097870;28;20078;-75
2022/06/12 00:48:06;;;;;;;15.60;5.25;;;14.90;99.90;;;;;;5072443;28;20051;-75
2022/06/12 00:50:33;;;;;;;14.27;5.75;;;14.90;99.90;;;;;;5099831;28;20036;-74
2022/06/12 00:53:00;;;;;;;15.02;6.13;;;14.90;99.90;;;;;;5093288;28;20600;-75
2022/06/12 00:55:57;;;;;;;17.02;5.63;;;15.00;99.90;;;;;;5095388;28;20096;-75
2022/06/12 00:58:25;;;;;;;16.88;5.93;;;15.00;99.90;;;;;;5098703;28;20517;-76
2022/06/12 01:00:52;;;;;;;15.20;5.40;;;15.00;99.90;;;;;;5086053;28;20047;-75
2022/06/12 01:03:19;;;;;;;14.20;5.43;;;15.00;99.90;;;;;;5100378;28;20050;-76
2022/06/12 01:08:30;;;;;;;12.85;4.90;;;15.00;99.90;;;;;;5107234;28;20047;-75
2022/06/12 01:11:00;;;;;;;15.15;5.80;;;15.10;99.90;;;;;;5109497;28;20052;-76
2022/06/12 01:13:31;;;;;;;16.05;5.55;;;15.00;99.90;;;;;;5106010;28;20525;-75
2022/06/12 01:16:01;;;;;;;14.45;5.18;;;15.00;99.90;;;;;;5104841;28;20039;-75
2022/06/12 01:18:31;;;;;;;15.40;5.63;;;15.00;99.90;;;;;;5106988;28;20035;-76
2022/06/12 01:21:39;;;;;;;12.40;5.57;;;14.90;99.90;;;;;;5085254;28;20052;-73
2022/06/12 01:24:11;;;;;;;16.70;5.88;;;14.90;99.90;;;;;;5062773;28;20055;-73
2022/06/12 01:26:36;;;;;;;17.60;5.85;;;14.80;99.90;;;;;;5089579;28;20506;-73
2022/06/12 01:29:11;;;;;;;18.70;5.75;;;14.80;99.90;;;;;;5088514;28;20046;-73
2022/06/12 01:32:14;;;;;;;13.15;5.22;;;14.80;99.90;;;;;;5071328;28;20060;-72
2022/06/12 01:35:04;;;;;;;15.82;5.68;;;14.80;99.90;;;;;;5075723;28;20502;-73
2022/06/12 01:37:53;;;;;;;15.38;5.60;;;14.80;99.90;;;;;;5075220;28;20044;-73
2022/06/12 01:40:36;;;;;;;17.35;5.63;;;14.80;99.90;;;;;;5105985;28;20040;-73
2022/06/12 01:43:20;;;;;;;14.43;5.38;;;14.70;99.90;;;;;;5078660;28;20494;-73
2022/06/12 01:46:18;;;;;;;18.25;6.10;;;14.60;99.90;;;;;;5110355;28;20356;-72
2022/06/12 01:49:13;;;;;;;13.40;5.70;;;14.60;99.90;;;;;;5108210;28;20394;-73
2022/06/12 01:51:41;;;;;;;12.75;5.32;;;14.50;99.90;;;;;;5054024;28;20138;-73
2022/06/12 01:54:34;;;;;;;13.30;5.30;;;14.40;99.90;;;;;;5106698;28;20051;-72
2022/06/12 01:57:12;;;;;;;13.07;5.00;;;14.40;99.90;;;;;;5098657;28;20528;-73
2022/06/12 02:00:06;;;;;;;14.32;5.72;;;14.30;99.90;;;;;;5110765;28;20496;-73
2022/06/12 02:02:47;;;;;;;13.15;5.13;;;14.30;99.90;;;;;;5110588;28;20035;-72
2022/06/12 02:05:51;;;;;;;13.35;5.78;;;14.30;99.90;;;;;;5110388;28;20051;-73
2022/06/12 02:08:26;;;;;;;13.68;6.07;;;14.30;99.90;;;;;;5094474;28;20056;-73
2022/06/12 02:14:01;;;;;;;15.60;5.63;;;14.20;99.90;;;;;;5074026;28;20056;-73
2022/06/12 02:16:34;;;;;;;14.98;5.40;;;14.20;99.90;;;;;;5074432;28;20542;-73
2022/06/12 02:19:08;;;;;;;12.55;5.05;;;14.20;99.90;;;;;;5103355;28;20048;-72
2022/06/12 02:21:42;;;;;;;12.88;5.30;;;14.10;99.90;;;;;;5109943;28;20051;-73
2022/06/12 02:24:22;;;;;;;15.07;5.63;;;14.10;99.90;;;;;;5112791;28;20459;-73
2022/06/12 02:27:15;;;;;;;12.70;5.47;;;14.10;99.90;;;;;;5111184;28;20035;-73
2022/06/12 02:29:50;;;;;;;13.15;5.65;;;14.10;99.90;;;;;;5112083;28;20043;-73
2022/06/12 02:32:22;;;;;;;13.95;5.47;;;14.00;99.90;;;;;;5085952;28;20080;-73
2022/06/12 02:34:57;;;;;;;14.15;5.07;;;13.90;99.90;;;;;;5073024;28;20048;-72
2022/06/12 02:37:30;;;;;;;15.05;5.53;;;13.90;99.90;;;;;;5098453;28;20483;-73
2022/06/12 02:40:02;;;;;;;17.75;5.70;;;13.90;99.90;;;;;;5086663;28;20051;-72
2022/06/12 02:42:37;;;;;;;13.32;5.68;;;13.90;99.90;;;;;;5096095;28;20034;-72
2022/06/12 02:45:34;;;;;;;13.90;5.38;;;13.90;99.90;;;;;;5091513;28;20049;-73
2022/06/12 02:48:00;;;;;;;14.30;5.65;;;13.90;99.90;;;;;;5087738;28;20118;-72
2022/06/12 02:50:36;;;;;;;13.98;5.68;;;13.80;99.90;;;;;;5108710;28;20065;-72
2022/06/12 02:53:32;;;;;;;14.25;5.40;;;13.80;99.90;;;;;;5107341;28;20039;-73
2022/06/12 02:56:12;;;;;;;13.23;5.10;;;13.80;99.90;;;;;;5111192;28;20048;-73
2022/06/12 02:58:54;;;;;;;10.02;5.00;;;13.80;99.90;;;;;;5110806;28;20177;-72
2022/06/12 03:01:28;;;;;;;13.27;4.88;;;13.80;99.90;;;;;;5088738;28;20052;-73
2022/06/12 03:04:00;;;;;;;10.77;4.80;;;13.80;99.90;;;;;;5104869;28;20040;-72
2022/06/12 03:06:27;;;;;;;12.48;5.07;;;13.80;99.90;;;;;;5107375;28;20047;-73
2022/06/12 03:08:56;;;;;;;13.20;4.97;;;13.80;99.90;;;;;;5085244;28;20122;-73
2022/06/12 03:11:38;;;;;;;13.73;5.05;;;13.80;99.90;;;;;;5110421;28;20096;-72
2022/06/12 03:14:11;;;;;;;12.02;4.82;;;13.80;99.90;;;;;;5085080;28;20051;-72
2022/06/12 03:16:41;;;;;;;13.82;4.43;;;13.80;99.90;;;;;;5101727;28;20112;-72
2022/06/12 03:19:17;;;;;;;11.48;4.40;;;13.80;99.90;;;;;;5108846;28;20061;-73
2022/06/12 03:21:49;;;;;;;11.55;4.80;;;13.80;99.90;;;;;;5091701;28;20143;-73
2022/06/12 03:24:29;;;;;;;9.93;4.75;;;13.80;99.90;;;;;;5110246;28;20062;-73
2022/06/12 03:27:25;;;;;;;9.30;4.38;;;13.70;99.90;;;;;;5092199;28;20040;-72
2022/06/12 03:30:11;;;;;;;14.35;4.70;;;13.70;99.90;;;;;;5047076;28;1074842;-72
2022/06/12 03:32:44;;;;;;;9.73;4.40;;;13.60;99.90;;;;;;5110593;28;20051;-72
2022/06/12 03:35:18;;;;;;;13.55;4.95;;;13.60;99.90;;;;;;5111096;28;20497;-72
2022/06/12 03:38:11;;;;;;;10.57;4.32;;;13.70;99.90;;;;;;5092752;28;20446;-73
2022/06/12 03:40:47;;;;;;;11.88;4.30;;;13.70;99.90;;;;;;5109309;28;20047;-73
2022/06/12 03:43:40;;;;;;;13.73;5.15;;;13.70;99.90;;;;;;5108977;28;20046;-72
2022/06/12 03:46:21;;;;;;;16.25;5.22;;;13.80;99.90;;;;;;5089536;28;20472;-72
2022/06/12 03:48:57;;;;;;;10.98;4.78;;;13.90;99.90;;;;;;5111529;28;20051;-72
2022/06/12 03:51:44;;;;;;;13.80;4.60;;;13.90;99.90;;;;;;5091806;28;20104;-73
2022/06/12 03:54:28;;;;;;;12.15;5.07;;;14.00;99.90;;;;;;5099988;28;20386;-73
2022/06/12 04:00:06;;;;;;;14.43;4.97;;;14.10;99.90;;;;;;5091672;28;20067;-73
2022/06/12 04:02:33;;;;;;;15.85;4.88;;;14.10;99.90;;;;;;5102934;28;20086;-73
2022/06/12 04:05:01;;;;;;;13.50;5.18;;;14.20;99.90;;;;;;5088082;28;20036;-73
2022/06/12 04:07:29;;;;;;;14.63;5.40;;;14.20;99.90;;;;;;5097122;28;20549;-73
2022/06/12 04:10:02;;;;;;;11.20;4.82;;;14.30;99.90;;;;;;5076191;28;20056;-72
2022/06/12 04:12:31;;;;;;;12.20;4.70;;;14.30;99.90;;;;;;5084434;28;20050;-73
2022/06/12 04:15:19;;;;;;;12.32;4.47;;;14.30;99.90;;;;;;5104950;28;20175;-73
2022/06/12 04:17:45;;;;;;;13.00;4.47;;;14.40;99.90;;;;;;5109002;28;20122;-73
2022/06/12 04:20:56;;;;;;;14.18;4.38;;;14.40;99.90;;;;;;5109646;28;20051;-73
2022/06/12 04:23:48;;;;;;;14.15;4.05;;;14.40;99.90;;;;;;5089930;28;20665;-73
2022/06/12 04:26:33;;;;;;;11.18;3.80;;;14.50;99.90;;;;;;5075242;28;20395;-73
2022/06/12 04:29:10;;;;;;;11.95;4.75;;;14.50;99.90;;;;;;5071514;28;20416;-73
2022/06/12 04:31:36;;;;;;;11.07;4.03;;;14.50;99.90;;;;;;5090023;28;20051;-72
2022/06/12 04:34:16;;;;;;;12.10;4.13;;;14.50;99.90;;;;;;5105098;28;21940;-73
2022/06/12 04:36:44;;;;;;;14.55;4.00;;;14.60;99.90;;;;;;5109319;28;20043;-73
2022/06/12 04:39:13;;;;;;;10.75;3.97;;;14.60;99.90;;;;;;5109075;28;20486;-72
2022/06/12 04:41:39;;;;;;;10.30;4.65;;;14.70;99.90;;;;;;5109279;28;20039;-73
2022/06/12 04:44:07;;;;;;;12.93;4.07;;;14.70;99.90;;;;;;5074773;28;20583;-73
2022/06/12 04:46:33;;;;;;;;;;;14.70;99.90;;;;;;5089309;28;20050;-73
2022/06/12 04:48:59;;;;;;;9.93;4.05;;;14.70;99.90;;;;;;5101343;28;19922;-73
2022/06/12 04:51:26;;;;;;;10.20;4.35;;;14.70;99.90;;;;;;5091457;28;20043;-74
2022/06/12 04:53:52;;;;;;;10.13;3.75;;;14.80;99.90;;;;;;5086385;28;20051;-74
2022/06/12 04:56:21;;;;;;;12.20;3.53;;;14.90;99.90;;;;;;5094942;28;20035;-74
2022/06/12 04:58:47;;;;;;;10.52;3.95;;;15.00;99.90;;;;;;5109975;28;20112;-73
2022/06/12 05:01:13;;;;;;;8.18;3.45;;;15.00;99.90;;;;;;5108818;28;20035;-73
2022/06/12 05:03:39;;;;;;;9.55;3.53;;;15.10;99.90;;;;;;5073810;28;20089;-73
2022/06/12 05:06:05;;;;;;;14.20;4.88;;;15.10;99.90;;;;;;5089113;28;20055;-73
2022/06/12 05:08:31;;;;;;;11.52;3.70;;;15.10;99.90;;;;;;5070701;28;20044;-73
2022/06/12 05:10:57;;;;;;;10.10;3.75;;;15.20;99.90;;;;;;5098382;28;20076;-73
2022/06/12 05:13:23;;;;;;;12.27;3.90;;;15.20;99.90;;;;;;5108311;28;20035;-73
2022/06/12 05:15:49;;;;;;;10.43;3.88;;;15.30;99.90;;;;;;5090729;28;20670;-73
2022/06/12 05:18:16;;;;;;;12.10;3.58;;;15.30;99.90;;;;;;5105940;28;20083;-74
2022/06/12 05:20:43;;;;;;;11.05;3.85;;;15.40;99.90;;;;;;5084729;28;20040;-74
2022/06/12 05:23:09;;;;;;;12.43;3.90;;;15.40;99.90;;;;;;5104537;28;20146;-74
2022/06/12 05:25:35;;;;;;;11.68;4.07;;;15.50;99.90;;;;;;5103858;28;20127;-74
2022/06/12 05:28:03;;;;;;;11.57;3.78;;;15.60;99.90;;;;;;5071662;28;20402;-74
2022/06/12 05:30:31;;;;;;;13.23;3.67;;;15.60;99.90;;;;;;5098180;28;20083;-74
2022/06/12 05:32:59;;;;;;;10.07;3.90;;;15.70;99.90;;;;;;5090583;28;20040;-73
2022/06/12 05:35:26;;;;;;;11.63;3.65;;;15.80;99.90;;;;;;5072834;28;20599;-74
2022/06/12 05:37:52;;;;;;;9.63;3.75;;;15.80;99.90;;;;;;5109483;28;20082;-73
2022/06/12 05:40:28;;;;;;;10.60;3.60;;;15.90;99.90;;;;;;5109066;28;20071;-74
2022/06/12 05:42:54;;;;;;;17.40;4.97;;;16.00;99.90;;;;;;5108635;28;20051;-74
2022/06/12 05:45:24;;;;;;;10.63;4.20;;;16.00;99.90;;;;;;5107883;28;20093;-73
2022/06/12 05:47:54;;;;;;;12.07;4.53;;;16.10;99.90;;;;;;5091365;28;20048;-74
2022/06/12 05:50:23;;;;;;;11.45;4.25;;;16.20;99.90;;;;;;5108243;28;20092;-73
2022/06/12 05:52:49;;;;;;;14.30;4.78;;;16.20;99.90;;;;;;5091042;28;20119;-73
2022/06/12 05:55:15;;;;;;;14.57;4.70;;;16.30;99.90;;;;;;5108523;28;20185;-74
2022/06/12 05:57:41;;;;;;;15.95;4.40;;;16.40;99.90;;;;;;5107072;28;20039;-74
2022/06/12 06:00:17;;;;;;;16.70;4.43;;;16.40;99.90;;;;;;5107015;28;20085;-73
2022/06/12 06:02:44;;;;;;;15.53;4.70;;;16.50;99.90;;;;;;5108588;28;20050;-73
2022/06/12 06:05:11;;;;;;;14.45;4.60;;;16.60;99.90;;;;;;5108532;28;20277;-74
2022/06/12 06:07:37;;;;;;;16.08;4.47;;;16.60;99.90;;;;;;5083902;28;20071;-74
2022/06/12 06:10:05;;;;;;;16.47;4.47;;;16.60;99.90;;;;;;5092663;28;20036;-74
2022/06/12 06:12:31;;;;;;;16.98;4.70;;;16.60;99.90;;;;;;5108397;28;20047;-74
2022/06/12 06:14:57;;;;;;;14.90;4.95;;;16.70;99.90;;;;;;5109090;28;20050;-74
2022/06/12 06:17:22;;;;;;;16.10;4.40;;;16.80;99.90;;;;;;5086673;28;20043;-74
2022/06/12 06:19:48;;;;;;;17.48;4.65;;;16.80;99.90;;;;;;5109225;28;20039;-74
2022/06/12 06:22:17;;;;;;;18.67;5.25;;;16.90;99.90;;;;;;5091568;28;20113;-75
2022/06/12 06:24:44;;;;;;;22.33;5.50;;;16.90;99.90;;;;;;5112427;28;20079;-74
2022/06/12 06:27:10;;;;;;;21.30;5.13;;;17.00;99.90;;;;;;5099991;28;20051;-73
2022/06/12 06:29:37;;;;;;;18.52;5.03;;;17.10;99.90;;;;;;5087404;28;20052;-74
2022/06/12 06:32:05;;;;;;;21.03;5.30;;;17.10;99.90;;;;;;5105291;28;20040;-74
2022/06/12 06:34:31;;;;;;;17.08;5.38;;;17.20;99.90;;;;;;5083275;28;20050;-73
2022/06/12 06:36:57;;;;;;;20.73;5.57;;;17.20;99.90;;;;;;5111092;28;20419;-74
2022/06/12 06:39:23;;;;;;;15.35;5.30;;;17.30;99.90;;;;;;5102536;28;20059;-73
2022/06/12 06:41:48;;;;;;;19.75;5.53;;;17.30;99.90;;;;;;5098232;28;20052;-74
2022/06/12 06:46:58;;;;;;;21.42;5.40;;;17.40;99.90;;;;;;5091434;28;20047;-74
2022/06/12 06:49:24;;;;;;;20.83;5.78;;;17.50;99.90;;;;;;5090856;28;20088;-74
2022/06/12 06:51:50;;;;;;;21.08;5.70;;;17.60;99.90;;;;;;5106395;28;20482;-77
2022/06/12 06:54:17;;;;;;;19.15;5.15;;;17.70;99.90;;;;;;5075281;28;20056;-76
2022/06/12 06:56:43;;;;;;;20.17;5.18;;;17.70;99.90;;;;;;5097415;28;20047;-75
2022/06/12 06:59:09;;;;;;;18.48;5.72;;;17.80;99.90;;;;;;5108917;28;20054;-74
2022/06/12 07:01:34;;;;;;;18.90;5.82;;;17.90;99.90;;;;;;5110100;28;20047;-73
2022/06/12 07:04:02;;;;;;;21.02;5.85;;;18.00;99.90;;;;;;5110787;28;20079;-74
2022/06/12 07:06:28;;;;;;;20.25;5.40;;;18.10;99.90;;;;;;5110067;28;20105;-74
2022/06/12 07:08:54;;;;;;;20.05;5.97;;;18.20;99.90;;;;;;5111964;28;20039;-75
2022/06/12 07:11:23;;;;;;;23.60;6.32;;;18.20;99.90;;;;;;5088732;28;20064;-75
2022/06/12 07:13:50;;;;;;;22.58;6.35;;;18.30;99.90;;;;;;5102070;28;20081;-74
2022/06/12 07:16:16;;;;;;;23.70;6.47;;;18.30;99.90;;;;;;5111290;28;20295;-74
2022/06/12 07:18:43;;;;;;;24.55;7.25;;;18.30;99.90;;;;;;5111749;28;20046;-73
2022/06/12 07:21:09;;;;;;;21.60;6.15;;;18.30;99.90;;;;;;5109197;28;20046;-74
2022/06/12 07:23:35;;;;;;;21.88;6.28;;;18.30;99.90;;;;;;5095692;28;20052;-73
2022/06/12 07:26:06;;;;;;;20.75;5.80;;;18.30;99.90;;;;;;5073075;28;20047;-74
2022/06/12 07:28:35;;;;;;;20.40;5.68;;;18.20;99.90;;;;;;5102515;28;20035;-72
2022/06/12 07:31:01;;;;;;;21.85;6.47;;;18.20;99.90;;;;;;5092749;28;20055;-73
2022/06/12 07:33:27;;;;;;;19.85;6.10;;;18.20;99.90;;;;;;5106947;28;20044;-74
2022/06/12 07:35:53;;;;;;;22.38;6.68;;;18.30;99.90;;;;;;5111067;28;20675;-76
2022/06/12 07:38:22;;;;;;;28.15;6.32;;;18.40;99.90;;;;;;5086651;28;20092;-76
2022/06/12 07:40:55;;;;;;;22.75;5.82;;;18.40;99.90;;;;;;5102412;28;20035;-75
2022/06/12 07:43:22;;;;;;;20.30;6.05;;;18.50;99.90;;;;;;5110157;28;20050;-76
2022/06/12 07:45:51;;;;;;;22.85;6.40;;;18.70;99.90;;;;;;5087857;28;20051;-74
2022/06/12 07:48:21;;;;;;;21.73;5.57;;;18.70;99.90;;;;;;5096918;28;20822;-74
2022/06/12 07:50:48;;;;;;;22.27;6.18;;;18.80;99.90;;;;;;5102394;28;20427;-74
2022/06/12 07:53:15;;;;;;;25.27;5.40;;;18.90;99.90;;;;;;5086011;28;20112;-73
2022/06/12 07:55:41;;;;;;;20.52;6.53;;;19.00;99.90;;;;;;5106437;28;20043;-73
2022/06/12 07:58:07;;;;;;;20.60;5.80;;;19.10;99.90;;;;;;5102512;28;20077;-73
2022/06/12 08:00:33;;;;;;;23.27;6.20;;;19.20;99.90;;;;;;5104139;28;20028;-73
2022/06/12 08:02:59;;;;;;;23.80;6.40;;;19.20;99.90;;;;;;5070440;28;20101;-74
2022/06/12 08:05:25;;;;;;;20.13;6.57;;;19.20;99.90;;;;;;5102444;28;20048;-73
2022/06/12 08:07:51;;;;;;;20.17;6.45;;;19.20;99.90;;;;;;5104011;28;20562;-74
2022/06/12 08:10:17;;;;;;;22.55;6.43;;;19.20;99.90;;;;;;5089908;28;20048;-73
2022/06/12 08:12:45;;;;;;;22.38;6.13;;;19.20;99.90;;;;;;5083410;28;20056;-72
2022/06/12 08:15:18;;;;;;;20.65;6.47;;;19.30;99.90;;;;;;5073022;28;20131;-73
2022/06/12 08:17:44;;;;;;;22.17;7.18;;;19.40;99.90;;;;;;5094297;28;20084;-74
2022/06/12 08:20:28;;;;;;;21.70;6.43;;;19.50;99.90;;;;;;5097159;28;20040;-72
2022/06/12 08:23:26;;;;;;;22.02;5.85;;;19.60;99.90;;;;;;5072746;28;20395;-74
2022/06/12 08:25:58;;;;;;;20.33;5.57;;;19.70;99.90;;;;;;5076644;28;20051;-74
2022/06/12 08:28:25;;;;;;;23.95;6.35;;;19.80;99.90;;;;;;5094411;28;20036;-73
2022/06/12 08:30:51;;;;;;;;;;;19.80;99.90;;;;;;5102410;28;20070;-73
2022/06/12 08:33:17;;;;;;;22.20;5.30;;;19.80;99.90;;;;;;5090970;28;19924;-74
2022/06/12 08:35:43;;;;;;;20.85;5.50;;;19.90;99.90;;;;;;5090712;28;20044;-74
2022/06/12 08:38:08;;;;;;;19.42;5.60;;;19.90;99.90;;;;;;5074951;28;20039;-73
2022/06/12 08:40:44;;;;;;;23.08;6.05;;;19.90;99.90;;;;;;5091533;28;20542;-74
2022/06/12 08:43:19;;;;;;;19.38;5.95;;;19.90;99.90;;;;;;5082875;28;20040;-73
2022/06/12 08:45:48;;;;;;;20.48;5.90;;;20.00;99.90;;;;;;5088324;28;20048;-72
2022/06/12 08:48:46;;;;;;;17.02;5.13;;;20.10;99.90;;;;;;5094496;28;20038;-74
2022/06/12 08:51:36;;;;;;;19.85;5.38;;;20.20;99.90;;;;;;5090724;28;21826;-74
2022/06/12 08:54:10;;;;;;;15.50;5.18;;;20.20;99.90;;;;;;5091776;28;20044;-74
2022/06/12 08:57:02;;;;;;;20.63;6.00;;;20.20;99.90;;;;;;5101379;28;20047;-73
2022/06/12 08:59:40;;;;;;;19.88;5.72;;;20.30;99.90;;;;;;5080965;28;20048;-73
2022/06/12 09:02:22;;;;;;;15.68;4.93;;;20.30;99.90;;;;;;5092947;28;20087;-74
2022/06/12 09:04:48;;;;;;;18.55;5.43;;;20.40;99.90;;;;;;5071109;28;20048;-73
2022/06/12 09:07:23;;;;;;;18.25;4.95;;;20.40;99.90;;;;;;5100742;28;20567;-72
2022/06/12 09:09:58;;;;;;;17.83;4.28;;;20.40;99.90;;;;;;5085016;28;20067;-71
2022/06/12 09:12:38;;;;;;;14.38;4.05;;;20.40;99.90;;;;;;5093160;28;20043;-70
2022/06/12 09:15:04;;;;;;;14.82;4.63;;;20.50;99.90;;;;;;5095585;28;20140;-71
2022/06/12 09:18:01;;;;;;;19.27;4.30;;;20.60;99.90;;;;;;5100691;28;20498;-72
2022/06/12 09:20:44;;;;;;;17.05;4.47;;;20.70;99.90;;;;;;5069784;28;20388;-72
2022/06/12 09:23:32;;;;;;;12.95;3.65;;;20.80;99.90;;;;;;5073473;28;20044;-72
2022/06/12 09:26:03;;;;;;;16.92;4.30;;;20.90;99.90;;;;;;5077375;28;20222;-72
2022/06/12 09:28:38;;;;;;;15.35;3.72;;;20.90;99.90;;;;;;5098535;28;20467;-73
2022/06/12 09:31:17;;;;;;;13.43;3.40;;;21.00;99.90;;;;;;5092919;28;20091;-73
2022/06/12 09:33:59;;;;;;;14.40;3.53;;;21.10;99.90;;;;;;5091253;28;20039;-73
2022/06/12 09:38:18;;;;;;;11.05;3.60;;;21.20;99.90;;;;;;5086303;28;20046;-73
2022/06/12 09:40:15;;;;;;;12.93;3.60;;;21.30;99.90;;;;;;5102163;28;20691;-74
2022/06/12 09:42:59;;;;;;;17.10;4.55;;;21.30;99.90;;;;;;5077483;28;20047;-74
2022/06/12 09:45:37;;;;;;;13.13;3.63;;;21.40;99.90;;;;;;5070646;28;20048;-74
2022/06/12 09:48:18;;;;;;;16.38;4.35;;;21.50;99.90;;;;;;5098331;28;20067;-74
2022/06/12 09:50:49;;;;;;;12.20;4.05;;;21.60;99.90;;;;;;5074841;28;20036;-74
2022/06/12 09:53:32;;;;;;;14.02;3.38;;;21.70;99.90;;;;;;5106353;28;20402;-75
2022/06/12 09:56:10;;;;;;;11.82;3.42;;;21.80;99.90;;;;;;5104673;28;20142;-73
2022/06/12 09:59:02;;;;;;;11.93;2.92;;;21.90;99.90;;;;;;5082638;28;20043;-74
2022/06/12 10:01:35;;;;;;;12.18;3.60;;;21.90;99.90;;;;;;5108725;28;20055;-75
2022/06/12 10:04:05;;;;;;;14.63;3.72;;;21.90;99.90;;;;;;5096344;28;20061;-75
2022/06/12 10:06:35;;;;;;;13.48;3.45;;;22.00;99.90;;;;;;5084340;28;20518;-74
2022/06/12 10:09:07;;;;;;;9.73;2.80;;;22.00;99.90;;;;;;5112604;28;20040;-73
2022/06/12 10:11:40;;;;;;;12.60;3.63;;;22.00;99.90;;;;;;5110398;28;20047;-73
2022/06/12 10:14:18;;;;;;;14.63;3.33;;;22.10;99.90;;;;;;5096846;28;20042;-73
2022/06/12 10:17:05;;;;;;;12.70;3.50;;;22.10;99.90;;;;;;5088931;28;20114;-75
2022/06/12 10:19:35;;;;;;;9.15;2.83;;;22.10;99.90;;;;;;5112351;28;20051;-74
2022/06/12 10:22:10;;;;;;;7.60;2.30;;;22.10;99.40;;;;;;5083340;28;20048;-74
2022/06/12 10:24:36;;;;;;;10.45;2.90;;;22.30;98.30;;;;;;5105941;28;20044;-75
2022/06/12 10:27:11;;;;;;;8.15;2.80;;;22.40;98.10;;;;;;5104094;28;20089;-72
2022/06/12 10:29:57;;;;;;;9.40;2.50;;;22.50;96.60;;;;;;5102072;28;20062;-72
2022/06/12 10:32:28;;;;;;;7.83;2.40;;;22.50;97.00;;;;;;5088955;28;20051;-73
2022/06/12 10:35:16;;;;;;;9.77;3.03;;;22.60;95.30;;;;;;5077903;28;20044;-73
2022/06/12 10:37:42;;;;;;;9.40;2.80;;;22.60;92.00;;;;;;5107168;28;20047;-73
2022/06/12 10:40:19;;;;;;;8.15;2.70;;;22.60;95.60;;;;;;5105546;28;21492;-74
2022/06/12 10:43:00;;;;;;;9.23;3.03;;;22.70;93.90;;;;;;5084811;28;20522;-77
2022/06/12 10:45:32;;;;;;;10.40;3.17;;;22.80;92.40;;;;;;5081234;28;20051;-75
2022/06/12 10:48:02;;;;;;;8.18;2.75;;;22.80;92.50;;;;;;5099315;28;20044;-74
2022/06/12 10:50:37;;;;;;;9.77;3.00;;;22.70;92.40;;;;;;5077410;28;20052;-74
2022/06/12 10:53:11;;;;;;;8.00;2.75;;;22.70;95.70;;;;;;5089082;28;20096;-75
2022/06/12 10:56:02;;;;;;;9.40;3.05;;;22.80;97.10;;;;;;5075369;28;20051;-74
2022/06/12 10:58:27;;;;;;;9.07;2.80;;;22.90;86.80;;;;;;5092051;28;20055;-76
2022/06/12 11:00:58;;;;;;;10.82;2.60;;;22.90;93.70;;;;;;5078776;28;20052;-74
2022/06/12 11:03:35;;;;;;;9.43;2.83;;;23.00;90.50;;;;;;5083205;28;20067;-78
2022/06/12 11:06:12;;;;;;;7.93;2.45;;;23.00;87.90;;;;;;5099888;28;20505;-78
2022/06/12 11:09:07;;;;;;;9.35;2.50;;;23.00;88.80;;;;;;5091899;28;20388;-76
2022/06/12 11:11:40;;;;;;;8.13;2.60;;;23.20;90.00;;;;;;5098381;28;20043;-78
2022/06/12 11:14:33;;;;;;;8.73;2.63;;;23.30;88.80;;;;;;5103359;28;20114;-75
2022/06/12 11:17:19;;;;;;;11.75;3.20;;;23.40;71.40;;;;;;5095632;28;20059;-74
2022/06/12 11:19:53;;;;;;;8.55;2.25;;;23.40;79.70;;;;;;5091942;28;20048;-74
2022/06/12 11:22:47;;;;;;;8.27;2.50;;;23.50;90.60;;;;;;5107330;28;20047;-75
2022/06/12 11:25:47;;;;;;;12.05;3.80;;;23.50;90.00;;;;;;5096313;28;20032;-76
2022/06/12 11:28:41;;;;;;;9.68;3.03;;;23.50;83.80;;;;;;5087755;28;20054;-77
2022/06/12 11:31:20;;;;;;;8.68;2.65;;;23.40;87.60;;;;;;5110538;28;20056;-75
2022/06/12 11:34:24;;;;;;;8.98;3.00;;;23.20;89.10;;;;;;5092539;28;20463;-76
2022/06/12 11:37:12;;;;;;;9.27;3.10;;;23.30;93.10;;;;;;5057605;28;20109;-77
2022/06/12 11:39:59;;;;;;;6.43;2.42;;;23.20;91.30;;;;;;5099448;28;20051;-73
2022/06/12 11:42:36;;;;;;;7.63;2.78;;;23.20;87.30;;;;;;5096643;28;20482;-75
2022/06/12 11:45:08;;;;;;;9.90;2.55;;;23.20;89.80;;;;;;5108473;28;20066;-73
2022/06/12 11:47:40;;;;;;;7.07;2.28;;;23.20;89.20;;;;;;5081215;28;20560;-76
2022/06/12 11:50:09;;;;;;;7.40;2.63;;;23.20;86.20;;;;;;5092723;28;20043;-73
2022/06/12 11:52:53;;;;;;;7.97;2.45;;;23.10;81.30;;;;;;5103346;28;20127;-72
2022/06/12 11:55:37;;;;;;;6.97;2.05;;;23.10;78.70;;;;;;5076118;28;20102;-74
2022/06/12 11:58:16;;;;;;;8.85;2.47;;;22.90;80.00;;;;;;5078665;28;20040;-74
2022/06/12 12:00:54;;;;;;;10.68;2.20;;;22.90;74.00;;;;;;5101353;28;20043;-73
2022/06/12 12:03:38;;;;;;;8.55;2.60;;;22.80;73.00;;;;;;5083638;28;20066;-73
2022/06/12 12:06:22;;;;;;;7.47;1.95;;;22.90;81.50;;;;;;5103738;28;20032;-75
2022/06/12 12:09:21;;;;;;;8.73;2.80;;;23.00;80.30;;;;;;5087158;28;20122;-76
2022/06/12 12:11:51;;;;;;;8.55;2.60;;;23.00;75.90;;;;;;5081888;28;20047;-71
2022/06/12 12:14:23;;;;;;;6.70;2.30;;;23.10;80.70;;;;;;5090632;28;20051;-73
2022/06/12 12:17:03;;;;;;;9.10;2.50;;;23.20;72.90;;;;;;5092842;28;20476;-73
2022/06/12 12:19:57;;;;;;;7.97;2.10;;;23.20;70.40;;;;;;5096709;28;20043;-72
2022/06/12 12:22:38;;;;;;;4.93;1.73;;;23.10;64.50;;;;;;5081896;28;20059;-72
2022/06/12 12:25:24;;;;;;;6.25;1.92;;;23.20;69.50;;;;;;5104351;28;20487;-72
2022/06/12 12:27:53;;;;;;;7.88;2.22;;;23.20;63.20;;;;;;5100510;28;20074;-72
2022/06/12 12:30:22;;;;;;;6.43;2.10;;;23.10;68.20;;;;;;5100056;28;20094;-72
2022/06/12 12:32:50;;;;;;;5.60;2.05;;;23.10;68.60;;;;;;5084730;28;20051;-73
2022/06/12 12:43:34;;;;;;;7.35;2.05;;;23.30;65.20;;;;;;5099417;28;20051;-73
2022/06/12 12:46:06;;;;;;;5.72;2.20;;;23.30;69.20;;;;;;5102437;28;20047;-75
2022/06/12 12:48:40;;;;;;;6.63;1.88;;;23.30;63.20;;;;;;5102447;28;20084;-76
2022/06/12 12:51:06;;;;;;;6.47;1.98;;;23.30;65.40;;;;;;5082928;28;20352;-70
2022/06/12 12:53:35;;;;;;;7.37;2.37;;;23.30;64.60;;;;;;5101343;28;20043;-73
2022/06/12 12:56:13;;;;;;;10.43;2.40;;;23.20;63.50;;;;;;5081893;28;20044;-73
2022/06/12 12:59:02;;;;;;;7.90;2.20;;;23.20;63.40;;;;;;5105946;28;20040;-74
2022/06/12 13:01:36;;;;;;;7.40;2.35;;;23.10;60.00;;;;;;5094073;28;20394;-75
2022/06/12 13:04:15;;;;;;;8.02;2.30;;;23.10;64.20;;;;;;5097247;28;20068;-73
2022/06/12 13:07:05;;;;;;;6.95;2.13;;;23.10;61.70;;;;;;5072285;28;20067;-72
2022/06/12 13:10:00;;;;;;;6.93;2.10;;;23.00;61.60;;;;;;5103125;28;20044;-70
2022/06/12 13:13:02;;;;;;;8.93;2.00;;;23.00;58.00;;;;;;5070523;28;20067;-71
2022/06/12 13:15:54;;;;;;;4.68;1.60;;;23.00;61.50;;;;;;5054687;28;20048;-71
2022/06/12 13:18:28;;;;;;;6.38;2.00;;;23.10;59.20;;;;;;5091387;28;20043;-71
2022/06/12 13:21:23;;;;;;;5.28;2.00;;;23.10;58.40;;;;;;5083995;28;20391;-71
2022/06/12 13:24:27;;;;;;;7.90;2.00;;;23.10;57.60;;;;;;5088167;28;20040;-71
2022/06/12 13:26:55;;;;;;;6.15;2.20;;;23.20;55.00;;;;;;5019609;28;20376;-71
2022/06/12 13:29:25;;;;;;;5.82;1.83;;;23.20;58.40;;;;;;5088518;28;20063;-70
2022/06/12 13:31:56;;;;;;;9.20;2.15;;;23.20;57.80;;;;;;5083409;28;20047;-73
2022/06/12 13:34:21;;;;;;;6.03;2.05;;;23.10;56.70;;;;;;5094593;28;20131;-72
2022/06/12 13:36:48;;;;;;;8.15;2.03;;;23.10;57.80;;;;;;5095836;28;20134;-73
2022/06/12 13:39:38;;;;;;;7.65;2.17;;;23.20;58.80;;;;;;5114028;28;20140;-73